Time;durP1;ratioP1;P1;durP2;ratioP2;P2;SDS_P1;SDS_P2;PMS_P1;PMS_P2;Temp;Humidity;BMP_temperature;BMP_pressure;BME280_temperature;BME280_humidity;BME280_pressure;Samples;Min_cycle;Max_cycle;Signal;HPM_P1;HPM_P2
2024/01/05 01:38:45;;;;;;;8.90;6.80;;;;;;;5.79;74.35;98575.42;102547;1294;606851;-72
2024/01/05 01:41:11;;;;;;;10.50;7.10;;;;;;;5.77;74.33;98575.98;104959;1269;59271;-71
2024/01/05 01:43:44;;;;;;;10.00;7.30;;;;;;;5.76;74.33;98576.79;105759;1257;59359;-72
2024/01/05 01:46:12;;;;;;;11.20;7.10;;;;;;;5.75;74.36;98574.75;105699;1258;62269;-71
2024/01/05 01:48:40;;;;;;;8.10;6.10;;;;;;;5.75;74.38;98575.58;105718;1253;59401;-71
2024/01/05 01:51:07;;;;;;;7.60;6.10;;;;;;;5.74;74.36;98577.48;105524;1253;211089;-73
2024/01/05 01:53:34;;;;;;;9.90;7.10;;;;;;;5.73;74.37;98580.02;105896;1256;59336;-73
2024/01/05 01:56:01;;;;;;;8.90;5.90;;;;;;;5.74;74.44;98581.15;105881;1256;59668;-73
2024/01/05 01:58:28;;;;;;;7.60;6.10;;;;;;;5.75;74.56;98582.09;106238;1255;63616;-71
2024/01/05 02:00:56;;;;;;;8.50;6.20;;;;;;;5.76;74.62;98581.09;105734;1256;59263;-72
2024/01/05 02:03:23;;;;;;;9.80;6.60;;;;;;;5.78;74.54;98579.73;105735;1253;64234;-72
2024/01/05 02:05:50;;;;;;;10.00;6.80;;;;;;;5.80;74.62;98577.52;105978;1255;59746;-72
2024/01/05 02:08:17;;;;;;;8.90;6.10;;;;;;;5.81;74.65;98577.59;105990;1252;59641;-73
2024/01/05 02:10:44;;;;;;;8.40;6.30;;;;;;;5.81;74.73;98575.09;105955;1257;64253;-73
2024/01/05 02:13:11;;;;;;;7.90;6.30;;;;;;;5.83;74.75;98572.70;106065;1255;59742;-72
2024/01/05 02:15:37;;;;;;;7.80;6.30;;;;;;;5.84;74.67;98574.02;105930;1256;63822;-72
2024/01/05 02:18:11;;;;;;;8.50;6.50;;;;;;;5.85;74.75;98571.79;105927;1252;59656;-72
2024/01/05 02:20:39;;;;;;;9.50;6.10;;;;;;;5.87;74.75;98571.95;105937;1253;59608;-72
2024/01/05 02:23:22;;;;;;;7.80;6.10;;;;;;;5.88;74.75;98573.91;105880;1255;64067;-73
2024/01/05 02:25:49;;;;;;;8.90;6.10;;;;;;;5.90;74.80;98572.55;105996;1253;59714;-72
2024/01/05 02:28:18;;;;;;;8.30;6.30;;;;;;;5.92;74.82;98577.98;105522;1260;63787;-73
2024/01/05 02:30:45;;;;;;;8.70;5.90;;;;;;;5.93;74.78;98578.08;106330;1254;59644;-72
2024/01/05 02:33:12;;;;;;;6.50;5.40;;;;;;;5.95;74.75;98580.55;105958;1253;59628;-72
2024/01/05 02:35:39;;;;;;;7.00;5.70;;;;;;;5.96;74.70;98579.03;106027;1253;64444;-71
2024/01/05 02:38:06;;;;;;;7.30;5.60;;;;;;;5.96;74.76;98580.21;106138;1251;59749;-73
2024/01/05 02:40:33;;;;;;;8.20;6.10;;;;;;;5.96;74.79;98582.34;106030;1256;62473;-72
2024/01/05 02:43:00;;;;;;;10.00;5.60;;;;;;;5.95;74.78;98585.57;105835;1253;59701;-72
2024/01/05 02:45:27;;;;;;;10.00;6.00;;;;;;;5.96;74.75;98589.05;105885;1257;59728;-72
2024/01/05 02:47:54;;;;;;;7.90;5.70;;;;;;;5.96;74.80;98591.05;105699;1253;64259;-71
2024/01/05 02:50:21;;;;;;;7.50;5.80;;;;;;;5.96;74.87;98590.92;105722;1252;59615;-71
2024/01/05 02:52:48;;;;;;;8.30;6.00;;;;;;;5.97;74.89;98594.45;106009;1256;66183;-72
2024/01/05 02:55:14;;;;;;;7.20;5.80;;;;;;;6.00;74.90;98592.66;105937;1255;59660;-71
2024/01/05 02:57:41;;;;;;;7.10;5.30;;;;;;;6.02;74.83;98595.81;105894;1251;59630;-72
2024/01/05 03:00:08;;;;;;;9.40;6.60;;;;;;;6.02;74.82;98596.45;106342;1251;64142;-73
2024/01/05 03:02:35;;;;;;;7.40;5.80;;;;;;;6.02;74.81;98598.73;106145;1253;59742;-72
2024/01/05 03:05:04;;;;;;;9.30;6.30;;;;;;;6.01;74.82;98597.42;105996;1258;63896;-72
2024/01/05 03:07:31;;;;;;;11.60;6.10;;;;;;;6.01;74.79;98595.71;105948;1259;59541;-72
2024/01/05 03:09:57;;;;;;;9.00;6.50;;;;;;;6.00;74.80;98597.17;105950;1253;59995;-72
2024/01/05 03:12:24;;;;;;;9.40;6.30;;;;;;;6.00;74.75;98596.81;105838;1256;64190;-72
2024/01/05 03:14:51;;;;;;;8.20;6.00;;;;;;;5.99;74.78;98598.30;105874;1252;59672;-72
2024/01/05 03:17:18;;;;;;;11.00;6.20;;;;;;;6.00;74.75;98595.65;106087;1256;72957;-71
2024/01/05 03:19:44;;;;;;;7.60;6.10;;;;;;;5.99;74.73;98595.85;105957;1253;59730;-72
2024/01/05 03:22:12;;;;;;;9.80;6.90;;;;;;;5.98;74.75;98596.83;105897;1253;61344;-72
2024/01/05 03:24:40;;;;;;;8.60;6.90;;;;;;;5.97;74.72;98599.58;105748;1254;64452;-72
2024/01/05 03:27:08;;;;;;;9.20;6.60;;;;;;;5.92;74.84;98599.84;105952;1256;59731;-72
2024/01/05 03:29:36;;;;;;;10.40;6.90;;;;;;;5.93;74.79;98600.23;105969;1253;63719;-72
2024/01/05 03:32:03;;;;;;;10.10;6.70;;;;;;;5.95;74.78;98601.13;105890;1253;59948;-72
2024/01/05 03:34:30;;;;;;;9.40;7.00;;;;;;;5.96;74.77;98602.74;105891;1253;59615;-72
2024/01/05 03:36:57;;;;;;;8.70;6.00;;;;;;;5.97;74.77;98602.20;105969;1254;63970;-72
2024/01/05 03:39:25;;;;;;;8.70;6.10;;;;;;;5.98;74.78;98605.63;105890;1256;59593;-72
2024/01/05 03:41:52;;;;;;;8.80;6.10;;;;;;;5.98;74.82;98610.50;106247;1251;63841;-72
2024/01/05 03:44:21;;;;;;;8.30;6.50;;;;;;;5.99;74.92;98611.98;105942;1253;59682;-72
2024/01/05 03:46:48;;;;;;;8.00;5.70;;;;;;;5.93;75.12;98612.48;105898;1253;59855;-73
2024/01/05 03:49:16;;;;;;;7.20;5.50;;;;;;;5.93;75.31;98614.81;106026;1256;64481;-72
2024/01/05 03:51:43;;;;;;;7.10;5.50;;;;;;;5.93;75.38;98616.83;105864;1259;59570;-73
2024/01/05 03:54:10;;;;;;;8.20;5.90;;;;;;;5.95;75.43;98618.95;106049;1256;62636;-73
2024/01/05 03:56:41;;;;;;;9.10;6.30;;;;;;;5.96;75.51;98620.73;105713;1252;59763;-73
2024/01/05 03:59:09;;;;;;;7.90;5.70;;;;;;;5.98;75.48;98625.98;105853;1254;59606;-72
2024/01/05 04:01:45;;;;;;;7.80;5.90;;;;;;;6.02;75.52;98627.05;105950;1251;64232;-72
2024/01/05 04:04:12;;;;;;;9.00;6.00;;;;;;;6.11;75.38;98624.19;106219;1256;59602;-72
2024/01/05 04:06:40;;;;;;;8.80;6.10;;;;;;;6.15;75.28;98625.56;105849;1251;62671;-72
2024/01/05 04:09:10;;;;;;;9.10;6.50;;;;;;;6.17;75.22;98629.02;105998;1255;59529;-73
2024/01/05 04:11:37;;;;;;;8.90;6.40;;;;;;;6.19;75.17;98636.21;106131;1255;59714;-72
2024/01/05 04:14:05;;;;;;;8.80;6.50;;;;;;;6.21;75.18;98639.58;106054;1253;63319;-72
2024/01/05 04:16:31;;;;;;;10.00;7.10;;;;;;;6.22;75.23;98648.38;106143;1252;59745;-72
2024/01/05 04:18:58;;;;;;;11.20;7.40;;;;;;;6.23;75.17;98653.36;105925;1256;63963;-71
2024/01/05 04:21:25;;;;;;;10.30;7.60;;;;;;;6.23;75.15;98651.77;106084;1251;59739;-71
2024/01/05 04:23:54;;;;;;;12.20;8.20;;;;;;;6.24;75.16;98655.16;106019;1251;59641;-71
2024/01/05 04:26:21;;;;;;;10.20;7.50;;;;;;;6.25;75.19;98654.55;106043;1253;64108;-72
2024/01/05 04:28:48;;;;;;;11.30;8.30;;;;;;;6.27;75.15;98658.74;105800;1254;59720;-72
2024/01/05 04:31:15;;;;;;;14.00;10.50;;;;;;;6.28;75.13;98659.57;106080;1252;62635;-71
2024/01/05 04:33:42;;;;;;;16.90;12.80;;;;;;;6.29;75.10;98662.05;106014;1256;59581;-72
2024/01/05 04:36:10;;;;;;;14.40;11.20;;;;;;;6.29;75.09;98667.43;106122;1256;59557;-73
2024/01/05 04:38:37;;;;;;;13.10;10.10;;;;;;;6.29;75.08;98674.27;105914;1258;64937;-72
2024/01/05 04:41:04;;;;;;;10.70;8.30;;;;;;;6.32;75.02;98679.13;106096;1254;59663;-72
2024/01/05 04:43:30;;;;;;;10.50;8.20;;;;;;;6.31;74.82;98681.48;106052;1254;63730;-73
2024/01/05 04:45:57;;;;;;;9.50;7.60;;;;;;;6.29;74.74;98682.86;105998;1251;59533;-73
2024/01/05 04:48:24;;;;;;;10.50;8.10;;;;;;;6.28;74.77;98686.84;105915;1259;59546;-70
2024/01/05 04:50:51;;;;;;;11.30;8.30;;;;;;;6.27;74.67;98692.14;105857;1253;63006;-69
2024/01/05 04:53:18;;;;;;;12.20;7.70;;;;;;;6.27;74.72;98696.16;106012;1257;59714;-73
2024/01/05 04:55:44;;;;;;;11.80;8.30;;;;;;;6.28;74.80;98702.89;105957;1253;64088;-72
2024/01/05 04:58:11;;;;;;;12.80;8.20;;;;;;;6.28;74.84;98701.13;105964;1253;59630;-72
2024/01/05 05:00:38;;;;;;;14.30;9.40;;;;;;;6.31;74.79;98702.82;106072;1252;59495;-71
2024/01/05 05:03:05;;;;;;;12.40;9.30;;;;;;;6.34;74.90;98710.59;105792;1256;64824;-70
2024/01/05 05:05:32;;;;;;;13.80;9.20;;;;;;;6.38;74.96;98714.59;105905;1256;59548;-68
2024/01/05 05:07:59;;;;;;;13.60;9.30;;;;;;;6.43;75.03;98718.83;105975;1256;63963;-71
2024/01/05 05:10:26;;;;;;;13.30;9.20;;;;;;;6.47;75.13;98720.80;105787;1256;59578;-71
2024/01/05 05:12:53;;;;;;;12.30;7.50;;;;;;;6.51;75.19;98720.39;105860;1251;59731;-71
2024/01/05 05:15:20;;;;;;;9.00;7.20;;;;;;;6.56;75.23;98722.73;105977;1256;64140;-72
2024/01/05 05:17:47;;;;;;;11.20;7.60;;;;;;;6.60;75.27;98722.25;105973;1256;59609;-72
2024/01/05 05:20:14;;;;;;;11.40;7.30;;;;;;;6.63;75.26;98724.98;105852;1253;63840;-72
2024/01/05 05:22:41;;;;;;;10.80;7.40;;;;;;;6.64;75.25;98728.34;105958;1256;59574;-69
2024/01/05 05:25:08;;;;;;;8.60;6.10;;;;;;;6.65;75.22;98733.54;105758;1254;59699;-73
2024/01/05 05:27:35;;;;;;;9.30;6.70;;;;;;;6.66;75.18;98738.01;105911;1258;64300;-71
2024/01/05 05:30:06;;;;;;;10.20;6.30;;;;;;;6.66;75.06;98740.21;105821;1252;59738;-70
2024/01/05 05:32:33;;;;;;;10.10;6.70;;;;;;;6.67;75.00;98742.98;105655;1254;64016;-71
2024/01/05 05:35:00;;;;;;;10.80;6.80;;;;;;;6.65;75.03;98746.10;105678;1254;59553;-69
2024/01/05 05:37:28;;;;;;;9.80;6.70;;;;;;;6.64;75.00;98742.38;105998;1256;60688;-71
2024/01/05 05:39:54;;;;;;;9.90;7.40;;;;;;;6.64;74.98;98743.04;106290;1256;64370;-69
2024/01/05 05:42:21;;;;;;;11.90;8.10;;;;;;;6.64;74.93;98740.77;105910;1253;59551;-72
2024/01/05 05:44:48;;;;;;;13.10;9.10;;;;;;;6.64;74.94;98740.91;105755;1255;62545;-70
2024/01/05 05:47:15;;;;;;;13.80;9.20;;;;;;;6.60;74.89;98738.87;105895;1256;60451;-69
2024/01/05 05:49:41;;;;;;;11.30;8.60;;;;;;;6.52;75.04;98741.27;106006;1255;60374;-71
2024/01/05 05:52:08;;;;;;;11.40;8.80;;;;;;;6.52;75.09;98743.80;105693;1256;65264;-71
2024/01/05 05:54:35;;;;;;;12.90;8.50;;;;;;;6.56;75.03;98753.23;105989;1253;60515;-70
2024/01/05 05:57:05;;;;;;;11.20;8.20;;;;;;;6.60;74.85;98757.23;105757;1257;62569;-71
2024/01/05 05:59:32;;;;;;;14.20;8.20;;;;;;;6.62;74.76;98765.23;105839;1256;60403;-71
2024/01/05 06:01:59;;;;;;;13.30;9.20;;;;;;;6.64;74.71;98773.17;105910;1254;60451;-70
2024/01/05 06:04:26;;;;;;;12.70;9.30;;;;;;;6.64;74.72;98773.80;106041;1258;65212;-72
2024/01/05 06:06:53;;;;;;;11.40;8.00;;;;;;;6.65;74.75;98774.25;105850;1256;60633;-73
2024/01/05 06:09:19;;;;;;;11.40;7.50;;;;;;;6.66;74.70;98776.96;105874;1255;65085;-72
2024/01/05 06:11:46;;;;;;;11.70;7.60;;;;;;;6.68;74.69;98778.77;106072;1251;60540;-72
2024/01/05 06:14:13;;;;;;;11.40;7.50;;;;;;;6.70;74.75;98782.24;105844;1252;60342;-73
2024/01/05 06:16:40;;;;;;;11.20;8.20;;;;;;;6.70;74.69;98784.98;105872;1254;63764;-70
2024/01/05 06:19:09;;;;;;;10.80;8.20;;;;;;;6.71;74.69;98787.67;105790;1253;60956;-70
2024/01/05 06:21:36;;;;;;;11.20;7.70;;;;;;;6.73;74.70;98794.52;105908;1254;63135;-70
2024/01/05 06:24:04;;;;;;;10.20;7.90;;;;;;;6.75;74.66;98796.13;105781;1255;60425;-67
2024/01/05 06:26:31;;;;;;;11.40;8.10;;;;;;;6.76;74.54;98795.71;105753;1251;60412;-71
2024/01/05 06:28:58;;;;;;;11.30;8.30;;;;;;;6.76;74.56;98794.46;105746;1257;65074;-70
2024/01/05 06:31:25;;;;;;;9.50;7.30;;;;;;;6.75;74.50;98799.23;105993;1254;60460;-70
2024/01/05 06:33:52;;;;;;;9.20;6.70;;;;;;;6.75;74.42;98804.47;106573;1253;62798;-68
2024/01/05 06:36:19;;;;;;;10.10;6.80;;;;;;;6.76;74.44;98806.73;106215;1254;60543;-67
2024/01/05 06:38:47;;;;;;;10.40;7.50;;;;;;;6.75;74.33;98807.09;106286;1251;60425;-67
2024/01/05 06:41:13;;;;;;;9.30;7.60;;;;;;;6.76;74.32;98807.95;105856;1256;65215;-68
2024/01/05 06:43:40;;;;;;;9.50;7.30;;;;;;;6.76;74.25;98811.20;105845;1254;60453;-67
2024/01/05 06:46:07;;;;;;;8.90;7.10;;;;;;;6.75;74.15;98814.94;105764;1257;64039;-67
2024/01/05 06:48:34;;;;;;;13.20;8.40;;;;;;;6.74;74.04;98818.22;105975;1255;60440;-67
2024/01/05 06:51:03;;;;;;;12.80;9.70;;;;;;;6.71;74.01;98820.93;105864;1253;60480;-69
2024/01/05 06:53:30;;;;;;;12.40;8.90;;;;;;;6.70;73.87;98821.73;105852;1256;65223;-68
2024/01/05 06:55:57;;;;;;;12.40;7.80;;;;;;;6.69;73.81;98823.45;105923;1255;60449;-69
2024/01/05 06:58:24;;;;;;;11.40;8.30;;;;;;;6.68;73.79;98823.54;105953;1256;64159;-68
2024/01/05 07:00:51;;;;;;;12.80;9.10;;;;;;;6.66;73.73;98819.67;105910;1256;60365;-67
2024/01/05 07:03:19;;;;;;;16.30;9.70;;;;;;;6.65;73.64;98823.42;105822;1256;60457;-68
2024/01/05 07:05:46;;;;;;;16.20;10.40;;;;;;;6.63;73.54;98827.08;105971;1256;65201;-67
2024/01/05 07:08:13;;;;;;;15.70;9.80;;;;;;;6.62;73.52;98833.35;105855;1257;60535;-67
2024/01/05 07:10:40;;;;;;;13.80;9.70;;;;;;;6.60;73.50;98839.73;105614;1259;64190;-67
2024/01/05 07:13:07;;;;;;;14.90;9.30;;;;;;;6.58;73.48;98841.52;105568;1257;60457;-67
2024/01/05 07:15:35;;;;;;;12.20;8.40;;;;;;;6.57;73.53;98847.20;105654;1251;60494;-68
2024/01/05 07:18:05;;;;;;;14.60;9.10;;;;;;;6.57;73.53;98847.58;105834;1251;65188;-68
2024/01/05 07:20:33;;;;;;;13.20;8.60;;;;;;;6.57;73.45;98852.27;105611;1254;60463;-68
2024/01/05 07:23:01;;;;;;;16.10;9.50;;;;;;;6.58;73.51;98855.35;105760;1255;64124;-69
2024/01/05 07:25:28;;;;;;;12.20;8.60;;;;;;;6.60;73.60;98853.41;105684;1256;60882;-67
2024/01/05 07:27:55;;;;;;;14.50;9.90;;;;;;;6.65;73.70;98855.64;105719;1260;60435;-68
2024/01/05 07:30:22;;;;;;;11.10;7.80;;;;;;;6.70;73.75;98855.70;105653;1251;65287;-68
2024/01/05 07:32:50;;;;;;;11.90;8.50;;;;;;;6.77;73.87;98862.02;105795;1256;60331;-68
2024/01/05 07:35:18;;;;;;;11.70;8.00;;;;;;;6.87;73.89;98862.20;106316;1254;64105;-67
2024/01/05 07:37:48;;;;;;;12.60;8.40;;;;;;;6.98;73.97;98863.91;105870;1259;60454;-68
2024/01/05 07:40:15;;;;;;;8.80;6.70;;;;;;;7.08;73.86;98862.81;105768;1251;60469;-69
2024/01/05 07:42:42;;;;;;;9.50;6.80;;;;;;;7.18;73.76;98869.10;105700;1258;65187;-68
2024/01/05 07:45:10;;;;;;;10.70;6.20;;;;;;;7.27;73.64;98874.64;105715;1255;60698;-68
2024/01/05 07:47:37;;;;;;;9.00;5.20;;;;;;;7.33;73.38;98878.60;105772;1257;64074;-70
2024/01/05 07:50:05;;;;;;;7.80;5.00;;;;;;;7.39;73.20;98886.64;105709;1257;60357;-70
2024/01/05 07:52:32;;;;;;;5.40;4.20;;;;;;;7.45;72.76;98893.59;105778;1251;60444;-69
2024/01/05 07:54:59;;;;;;;5.60;4.10;;;;;;;7.52;72.42;98893.31;105615;1251;65061;-70
2024/01/05 07:57:26;;;;;;;6.00;3.30;;;;;;;7.61;72.20;98896.38;105874;1255;67329;-69
2024/01/05 07:59:52;;;;;;;5.10;3.00;;;;;;;7.68;71.56;98903.45;105709;1258;62726;-69
2024/01/05 08:02:19;;;;;;;5.00;3.50;;;;;;;7.78;71.12;98904.83;105741;1254;61081;-69
2024/01/05 08:04:46;;;;;;;5.00;3.70;;;;;;;7.87;70.81;98906.26;105776;1257;60457;-69
2024/01/05 08:07:13;;;;;;;6.50;4.30;;;;;;;7.95;70.46;98906.19;105621;1259;64991;-70
2024/01/05 08:09:42;;;;;;;4.10;2.90;;;;;;;8.01;69.96;98909.82;105742;1257;60453;-71
2024/01/05 08:12:09;;;;;;;4.40;3.00;;;;;;;8.03;69.30;98908.06;105963;1256;62461;-77
2024/01/05 08:14:37;;;;;;;5.20;2.70;;;;;;;8.01;68.80;98907.45;106054;1253;60409;-79
2024/01/05 08:17:06;;;;;;;3.50;2.60;;;;;;;7.97;68.63;98911.45;106044;1257;60457;-79
2024/01/05 08:19:33;;;;;;;4.70;2.90;;;;;;;7.96;68.55;98915.05;106109;1257;65053;-75
2024/01/05 08:22:00;;;;;;;4.20;2.70;;;;;;;7.99;68.39;98920.04;105802;1260;60429;-77
2024/01/05 08:24:28;;;;;;;4.80;3.40;;;;;;;7.99;68.16;98926.88;106033;1257;64030;-79
2024/01/05 08:26:55;;;;;;;3.70;2.70;;;;;;;7.97;67.92;98928.66;105874;1261;60400;-76
2024/01/05 08:29:22;;;;;;;4.10;2.50;;;;;;;7.97;67.98;98933.06;105841;1258;59647;-75
2024/01/05 08:31:50;;;;;;;4.70;2.60;;;;;;;7.98;67.70;98932.08;105778;1251;65196;-76
2024/01/05 08:34:17;;;;;;;3.80;2.90;;;;;;;7.96;67.54;98937.10;105769;1261;60491;-76
2024/01/05 08:36:45;;;;;;;5.30;3.10;;;;;;;7.95;67.45;98940.20;105703;1256;64768;-78
2024/01/05 08:39:19;;;;;;;3.80;2.50;;;;;;;7.93;67.43;98942.70;105767;1258;60637;-77
2024/01/05 08:41:46;;;;;;;3.90;2.30;;;;;;;7.92;67.46;98952.28;105825;1251;60482;-78
2024/01/05 08:44:14;;;;;;;3.40;2.30;;;;;;;7.87;67.15;98960.44;105891;1251;65196;-75
2024/01/05 08:46:41;;;;;;;3.70;2.30;;;;;;;7.80;67.07;98967.16;105790;1259;60515;-75
2024/01/05 08:49:08;;;;;;;4.10;2.60;;;;;;;7.72;67.24;98959.63;108552;1253;63989;-76
2024/01/05 08:51:43;;;;;;;4.20;3.00;;;;;;;7.66;67.74;98960.16;109121;1254;59502;-73
2024/01/05 08:54:10;;;;;;;3.50;2.60;;;;;;;7.60;68.07;98962.15;109446;1251;58146;-74
2024/01/05 08:56:40;;;;;;;3.90;3.00;;;;;;;7.57;68.35;98964.03;107374;1260;63859;-76
2024/01/05 08:59:09;;;;;;;4.00;3.20;;;;;;;7.55;68.82;98966.96;105911;1259;60495;-78
2024/01/05 09:01:37;;;;;;;4.70;3.60;;;;;;;7.52;69.00;98971.29;106343;1251;64160;-75
2024/01/05 09:04:05;;;;;;;6.10;3.50;;;;;;;7.50;69.21;98970.30;106329;1256;60462;-75
2024/01/05 09:06:33;;;;;;;4.50;3.10;;;;;;;7.47;69.31;98979.95;105864;1256;60408;-70
2024/01/05 09:09:00;;;;;;;3.90;2.80;;;;;;;7.43;69.42;98980.43;105817;1254;65275;-71
2024/01/05 09:11:27;;;;;;;5.00;3.30;;;;;;;7.42;69.47;98979.02;106014;1254;60539;-70
2024/01/05 09:13:54;;;;;;;4.00;2.60;;;;;;;7.39;69.55;98980.62;105617;1254;63458;-70
2024/01/05 09:16:24;;;;;;;4.00;3.00;;;;;;;7.34;69.61;98982.83;105683;1259;60454;-71
2024/01/05 09:18:51;;;;;;;4.70;2.90;;;;;;;7.33;69.75;98985.27;105350;1257;60509;-71
2024/01/05 09:21:21;;;;;;;3.00;2.60;;;;;;;7.33;69.80;98986.61;105836;1257;65144;-70
2024/01/05 09:23:51;;;;;;;3.40;2.50;;;;;;;7.33;69.82;98991.52;105862;1252;60593;-71
2024/01/05 09:26:18;;;;;;;3.30;2.50;;;;;;;7.33;69.93;98995.75;105504;1260;62669;-71
2024/01/05 09:28:45;;;;;;;3.40;2.70;;;;;;;7.30;70.02;98997.25;105595;1254;60520;-71
2024/01/05 09:31:12;;;;;;;4.10;3.40;;;;;;;7.27;70.05;99002.39;105632;1257;60421;-71
2024/01/05 09:33:39;;;;;;;4.40;3.00;;;;;;;7.21;70.05;99004.47;105932;1251;65869;-71
2024/01/05 09:36:07;;;;;;;5.10;3.40;;;;;;;7.16;70.19;99007.02;105977;1256;60444;-71
2024/01/05 09:38:35;;;;;;;4.90;3.20;;;;;;;7.13;70.31;99014.58;105995;1254;63813;-71
2024/01/05 09:41:03;;;;;;;5.20;3.40;;;;;;;7.13;70.45;99017.92;105743;1257;60349;-70
2024/01/05 09:43:30;;;;;;;4.10;3.20;;;;;;;7.09;70.51;99023.36;105701;1254;60540;-72
2024/01/05 09:45:57;;;;;;;4.30;3.10;;;;;;;7.06;70.74;99024.06;105684;1253;65206;-70
2024/01/05 09:48:24;;;;;;;4.50;3.30;;;;;;;7.07;70.92;99025.66;105701;1257;60527;-71
2024/01/05 09:51:03;;;;;;;4.50;2.80;;;;;;;7.09;71.01;99021.45;105824;1255;63814;-71
2024/01/05 09:53:30;;;;;;;3.80;2.90;;;;;;;7.09;71.00;99026.85;105774;1251;60351;-71
2024/01/05 09:55:57;;;;;;;3.90;3.00;;;;;;;7.10;71.01;99025.75;105824;1255;60454;-71
2024/01/05 09:58:24;;;;;;;15.70;9.30;;;;;;;7.12;71.12;99027.18;105782;1251;67089;-66
2024/01/05 10:00:50;;;;;;;7.40;5.10;;;;;;;7.11;71.04;99030.20;105768;1254;60450;-70
2024/01/05 10:03:24;;;;;;;4.10;3.00;;;;;;;7.11;70.99;99034.29;105741;1256;63803;-69
2024/01/05 10:05:55;;;;;;;4.30;3.30;;;;;;;7.11;71.00;99041.02;105651;1257;60424;-70
2024/01/05 10:08:22;;;;;;;3.60;2.90;;;;;;;7.12;70.99;99045.14;105797;1251;60566;-71
2024/01/05 10:10:59;;;;;;;3.60;2.80;;;;;;;7.11;70.69;99044.56;105705;1257;65131;-70
2024/01/05 10:13:26;;;;;;;2.80;2.40;;;;;;;7.12;70.53;99048.35;105748;1257;60335;-71
2024/01/05 10:15:59;;;;;;;3.00;2.30;;;;;;;7.09;69.85;99052.83;105930;1251;64038;-71
2024/01/05 10:18:28;;;;;;;3.10;2.60;;;;;;;7.02;69.17;99053.92;105861;1258;60451;-71
2024/01/05 10:20:55;;;;;;;2.80;2.50;;;;;;;7.00;68.70;99059.39;105728;1253;60412;-71
2024/01/05 10:23:23;;;;;;;2.70;2.00;;;;;;;6.94;68.17;99062.53;105939;1251;65002;-71
2024/01/05 10:25:51;;;;;;;2.80;2.30;;;;;;;6.85;67.79;99067.10;105896;1251;60444;-72
2024/01/05 10:28:26;;;;;;;2.80;2.50;;;;;;;6.79;67.86;99070.23;105920;1251;65672;-72
2024/01/05 10:30:53;;;;;;;2.90;2.40;;;;;;;6.79;68.03;99075.01;105757;1251;60558;-71
2024/01/05 10:33:20;;;;;;;3.20;2.50;;;;;;;6.78;67.79;99083.45;105739;1251;60576;-72
2024/01/05 10:35:47;;;;;;;3.10;2.50;;;;;;;6.74;67.47;99089.58;105719;1251;64976;-72
2024/01/05 10:38:14;;;;;;;2.80;2.50;;;;;;;6.68;67.31;99088.16;105946;1254;60563;-71
2024/01/05 10:40:41;;;;;;;2.70;2.30;;;;;;;6.66;67.51;99088.65;105695;1257;62954;-71
2024/01/05 10:43:18;;;;;;;5.20;3.10;;;;;;;6.65;67.50;99089.41;105580;1258;60405;-72
2024/01/05 10:45:45;;;;;;;3.90;2.70;;;;;;;6.64;67.45;99090.59;105652;1251;60447;-71
2024/01/05 10:48:18;;;;;;;4.00;2.80;;;;;;;6.60;67.33;99095.10;105676;1257;65148;-71
2024/01/05 10:50:47;;;;;;;3.00;2.40;;;;;;;6.58;67.50;99093.20;105625;1251;60530;-70
2024/01/05 10:53:13;;;;;;;3.80;2.50;;;;;;;6.55;67.58;99097.80;105743;1257;64047;-71
2024/01/05 10:55:42;;;;;;;3.30;2.70;;;;;;;6.52;67.61;99097.30;105706;1251;60491;-71
2024/01/05 10:58:09;;;;;;;3.50;2.80;;;;;;;6.52;67.60;99098.55;105799;1251;60402;-71
2024/01/05 11:00:36;;;;;;;3.00;2.70;;;;;;;6.51;67.67;99101.42;106072;1250;63713;-71
2024/01/05 11:03:09;;;;;;;3.10;2.70;;;;;;;6.47;67.70;99106.47;105843;1251;60432;-71
2024/01/05 11:05:41;;;;;;;3.50;2.90;;;;;;;6.44;67.81;99112.73;105698;1251;64738;-71
2024/01/05 11:09:05;;;;;;;3.30;2.50;;;;;;;6.42;67.78;99115.81;106080;1251;60332;-71
2024/01/05 11:12:03;;;;;;;3.20;2.60;;;;;;;6.41;68.08;99123.08;105236;1260;60650;-71
2024/01/05 11:14:36;;;;;;;3.90;2.80;;;;;;;6.38;68.16;99132.12;105908;1256;65187;-71
2024/01/05 11:17:11;;;;;;;4.00;2.90;;;;;;;6.35;68.10;99134.94;105781;1251;60456;-72
2024/01/05 11:20:16;;;;;;;3.00;2.60;;;;;;;6.33;68.21;99140.70;105676;1256;64379;-71
2024/01/05 11:22:45;;;;;;;3.60;3.00;;;;;;;6.31;68.28;99148.58;105818;1256;60414;-72
2024/01/05 11:25:13;;;;;;;2.90;2.30;;;;;;;6.28;68.33;99153.02;106073;1251;60549;-71
2024/01/05 11:27:43;;;;;;;3.00;2.50;;;;;;;6.24;68.28;99159.27;105729;1257;67072;-71
2024/01/05 11:30:11;;;;;;;3.80;3.10;;;;;;;6.20;68.33;99160.60;105848;1256;60414;-71
2024/01/05 11:32:42;;;;;;;3.40;2.70;;;;;;;6.19;68.38;99164.23;105719;1251;66042;-70
2024/01/05 11:35:43;;;;;;;2.90;2.60;;;;;;;6.16;68.47;99171.30;105970;1251;60517;-70
2024/01/05 11:38:28;;;;;;;3.00;2.70;;;;;;;6.13;68.56;99174.87;105883;1250;60361;-72
2024/01/05 11:40:55;;;;;;;3.50;2.80;;;;;;;6.10;68.64;99178.24;105835;1251;65035;-71
2024/01/05 11:43:29;;;;;;;2.90;2.40;;;;;;;6.09;68.64;99184.11;105678;1251;60541;-71
2024/01/05 11:45:56;;;;;;;9.00;5.30;;;;;;;6.08;68.76;99192.92;106039;1251;64720;-71
2024/01/05 11:48:35;;;;;;;11.90;7.70;;;;;;;6.04;68.79;99192.49;105876;1252;60399;-71
2024/01/05 11:51:08;;;;;;;26.30;16.50;;;;;;;6.06;68.94;99202.49;105825;1256;60355;-71
2024/01/05 11:53:36;;;;;;;15.30;10.40;;;;;;;6.07;68.98;99210.29;105904;1254;66583;-71
2024/01/05 11:56:07;;;;;;;3.40;2.80;;;;;;;6.04;69.06;99217.14;105905;1255;60431;-70
2024/01/05 11:58:40;;;;;;;4.10;3.20;;;;;;;5.99;69.12;99221.04;105934;1251;65749;-71
2024/01/05 12:01:12;;;;;;;3.50;3.10;;;;;;;5.98;69.30;99224.26;105567;1257;60566;-71
2024/01/05 12:03:39;;;;;;;3.30;2.80;;;;;;;5.98;69.42;99232.48;105787;1256;60444;-71
2024/01/05 12:06:11;;;;;;;3.80;3.00;;;;;;;5.98;69.48;99241.06;105928;1254;67126;-70
2024/01/05 12:08:44;;;;;;;7.10;3.10;;;;;;;5.96;69.52;99245.73;105955;1256;68599;-71
2024/01/05 12:11:12;;;;;;;3.90;3.00;;;;;;;5.96;69.62;99250.61;105543;1259;63951;-72
2024/01/05 12:13:39;;;;;;;3.20;2.70;;;;;;;5.97;69.71;99257.00;105794;1256;60514;-72
2024/01/05 12:16:07;;;;;;;5.90;2.90;;;;;;;5.98;69.79;99256.60;105774;1251;60474;-71
2024/01/05 12:18:43;;;;;;;4.40;3.20;;;;;;;5.96;69.77;99264.96;105943;1251;65383;-71
2024/01/05 12:21:11;;;;;;;4.40;3.40;;;;;;;5.92;69.81;99273.48;105774;1251;60362;-72
2024/01/05 12:23:38;;;;;;;4.60;3.20;;;;;;;5.87;69.94;99278.38;105636;1251;65775;-70
2024/01/05 12:26:07;;;;;;;5.20;4.10;;;;;;;5.85;70.00;99278.06;105655;1250;60540;-71
2024/01/05 12:28:37;;;;;;;10.20;7.00;;;;;;;5.83;70.05;99281.85;105926;1258;60374;-71
2024/01/05 12:31:07;;;;;;;40.10;21.20;;;;;;;5.82;70.17;99285.95;105539;1251;65707;-71
2024/01/05 12:33:38;;;;;;;55.60;30.20;;;;;;;5.81;70.27;99291.64;105877;1257;60543;-71
2024/01/05 12:36:17;;;;;;;19.10;12.70;;;;;;;5.76;70.26;99295.97;105944;1251;65977;-71
2024/01/05 12:38:44;;;;;;;8.40;6.10;;;;;;;5.73;70.33;99301.25;105864;1251;60460;-70
2024/01/05 12:41:15;;;;;;;7.00;5.50;;;;;;;5.74;70.45;99305.42;105842;1257;60413;-71
2024/01/05 12:43:51;;;;;;;7.50;6.00;;;;;;;5.72;70.53;99313.08;106079;1251;66862;-71
2024/01/05 12:46:20;;;;;;;10.60;7.70;;;;;;;5.67;70.60;99316.44;105726;1258;60361;-70
2024/01/05 12:48:46;;;;;;;8.70;6.40;;;;;;;5.63;70.67;99317.94;105760;1251;63881;-71
2024/01/05 12:51:19;;;;;;;6.60;5.20;;;;;;;5.62;70.78;99321.54;105647;1251;60492;-70
2024/01/05 12:53:49;;;;;;;5.50;4.60;;;;;;;5.62;70.73;99327.85;105658;1251;60530;-71
2024/01/05 12:56:17;;;;;;;4.50;3.40;;;;;;;5.63;70.85;99331.95;105922;1251;65967;-70
2024/01/05 12:58:46;;;;;;;14.90;10.90;;;;;;;5.65;70.96;99335.59;105993;1251;60537;-71
2024/01/05 13:01:20;;;;;;;29.10;19.00;;;;;;;5.66;71.00;99340.92;105978;1254;64643;-72
2024/01/05 13:03:53;;;;;;;7.40;5.30;;;;;;;5.68;71.04;99346.73;105821;1251;60447;-70
2024/01/05 13:06:25;;;;;;;7.00;5.40;;;;;;;5.69;71.04;99352.59;105915;1254;60429;-70
2024/01/05 13:08:53;;;;;;;6.80;5.20;;;;;;;5.69;71.09;99359.94;105689;1257;67060;-70
2024/01/05 13:11:20;;;;;;;5.70;4.50;;;;;;;5.68;71.12;99361.56;105728;1251;60507;-70
2024/01/05 13:13:52;;;;;;;5.50;4.90;;;;;;;5.67;71.05;99371.11;105757;1251;65867;-71